Time;durP1;ratioP1;P1;durP2;ratioP2;P2;SDS_P1;SDS_P2;PMS_P1;PMS_P2;Temp;Humidity;BMP_temperature;BMP_pressure;BME280_temperature;BME280_humidity;BME280_pressure;Samples;Min_cycle;Max_cycle;Signal;HPM_P1;HPM_P2
2022/12/24 00:01:02;;;;;;;24.50;12.80;;;;;;;3.62;84.05;98130.59;101896;1302;75186;-24
2022/12/24 00:03:29;;;;;;;22.50;12.90;;;;;;;4.14;83.63;98136.69;101866;1305;62782;-25
2022/12/24 00:05:56;;;;;;;23.10;13.10;;;;;;;4.48;82.66;98143.65;102001;1302;61760;-25
2022/12/24 00:08:24;;;;;;;28.70;15.80;;;;;;;4.49;82.41;98148.39;101915;1305;75595;-25
2022/12/24 00:10:51;;;;;;;26.90;14.90;;;;;;;4.31;82.57;98151.48;101985;1302;74981;-25
2022/12/24 00:13:18;;;;;;;25.80;15.40;;;;;;;4.07;83.34;98149.20;101925;1302;74186;-25
2022/12/24 00:15:45;;;;;;;18.30;10.80;;;;;;;3.84;84.61;98150.96;101925;1296;62699;-25
2022/12/24 00:18:12;;;;;;;24.60;13.70;;;;;;;4.09;85.39;98146.48;101917;1302;61804;-25
2022/12/24 00:20:39;;;;;;;27.80;14.50;;;;;;;4.49;83.71;98151.83;101984;1297;75570;-25
2022/12/24 00:23:06;;;;;;;25.00;13.40;;;;;;;4.43;83.62;98149.52;101994;1302;75361;-25
2022/12/24 00:25:33;;;;;;;21.10;10.40;;;;;;;4.24;84.07;98151.47;102014;1301;75161;-24
2022/12/24 00:28:00;;;;;;;23.20;11.70;;;;;;;3.96;85.25;98153.20;101868;1305;62707;-25
2022/12/24 00:30:27;;;;;;;20.00;11.80;;;;;;;3.90;86.37;98152.77;101930;1302;61086;-24
2022/12/24 00:32:54;;;;;;;23.70;13.80;;;;;;;4.22;85.84;98146.30;102037;1302;73345;-24
2022/12/24 00:35:21;;;;;;;21.50;13.00;;;;;;;4.37;85.10;98146.33;102243;1295;76493;-25
2022/12/24 00:37:48;;;;;;;24.70;13.70;;;;;;;4.21;85.00;98142.39;102100;1294;74115;-25
2022/12/24 00:40:15;;;;;;;24.60;13.00;;;;;;;3.99;85.83;98141.36;102141;1296;62155;-24
2022/12/24 00:42:42;;;;;;;24.60;12.50;;;;;;;3.95;86.34;98141.27;102142;1302;62647;-24
2022/12/24 00:45:10;;;;;;;19.50;12.10;;;;;;;4.29;85.66;98140.84;102072;1303;76367;-24
2022/12/24 00:47:37;;;;;;;23.50;12.80;;;;;;;4.47;84.75;98133.93;102146;1302;76444;-25
2022/12/24 00:50:05;;;;;;;26.50;13.50;;;;;;;4.33;84.90;98128.00;102125;1295;74272;-25
2022/12/24 00:52:32;;;;;;;19.20;10.30;;;;;;;4.25;85.26;98125.69;101998;1305;63126;-25
2022/12/24 00:54:59;;;;;;;20.50;11.20;;;;;;;3.99;86.43;98124.48;102074;1296;61531;-24
2022/12/24 00:57:26;;;;;;;22.80;12.20;;;;;;;4.30;86.67;98123.63;102242;1294;76415;-24
2022/12/24 00:59:53;;;;;;;20.10;11.10;;;;;;;4.53;85.43;98120.23;101990;1296;76917;-24
2022/12/24 01:02:20;;;;;;;24.80;12.20;;;;;;;4.49;85.30;98119.15;102103;1292;73691;-25
2022/12/24 01:07:33;;;;;;;17.00;11.20;;;;;;;4.28;85.92;98121.83;102204;1302;62683;-25
2022/12/24 01:10:00;;;;;;;20.30;11.10;;;;;;;4.72;84.71;98120.63;102036;1301;75282;-25
2022/12/24 01:12:27;;;;;;;25.50;12.90;;;;;;;4.91;83.45;98118.09;105726;1292;77209;-26
2022/12/24 01:14:54;;;;;;;19.30;10.70;;;;;;;4.79;83.15;98116.88;105726;1295;73625;-26
2022/12/24 01:17:21;;;;;;;18.60;9.90;;;;;;;4.53;83.99;98114.39;105816;1287;61439;-26
2022/12/24 01:19:48;;;;;;;17.90;9.90;;;;;;;4.35;84.62;98113.27;105778;1295;62343;-26
2022/12/24 01:22:14;;;;;;;14.90;7.90;;;;;;;4.19;85.75;98113.55;105785;1295;75820;-26
2022/12/24 01:24:41;;;;;;;19.00;11.00;;;;;;;4.61;84.64;98111.13;105797;1291;76258;-26
2022/12/24 01:27:08;;;;;;;16.30;10.10;;;;;;;4.73;83.45;98111.09;105807;1287;74803;-26
2022/12/24 01:29:35;;;;;;;20.50;10.20;;;;;;;4.51;83.60;98114.71;105689;1295;60044;-26
2022/12/24 01:32:02;;;;;;;22.40;12.90;;;;;;;4.46;83.82;98118.16;105759;1294;62441;-26
2022/12/24 01:34:29;;;;;;;23.30;11.60;;;;;;;4.22;84.34;98111.09;105744;1295;74808;-26
2022/12/24 01:36:56;;;;;;;18.10;9.70;;;;;;;4.36;84.59;98112.48;105742;1294;76167;-26
2022/12/24 01:39:23;;;;;;;23.10;11.10;;;;;;;4.67;83.36;98109.11;105734;1294;74876;-26
2022/12/24 01:44:40;;;;;;;17.90;11.20;;;;;;;4.48;83.03;98097.89;105709;1294;62920;-26
2022/12/24 01:47:10;;;;;;;16.20;9.20;;;;;;;4.22;84.02;98099.92;105541;1295;74921;-26
2022/12/24 01:49:41;;;;;;;19.30;11.20;;;;;;;4.16;84.61;98098.45;105715;1293;74823;-26
2022/12/24 01:52:11;;;;;;;20.40;11.90;;;;;;;4.63;83.36;98097.02;105654;1298;74802;-26
2022/12/24 01:55:00;;;;;;;19.60;10.00;;;;;;;4.78;82.17;98098.16;105601;1297;61127;-26
2022/12/24 01:57:30;;;;;;;22.70;12.50;;;;;;;4.61;82.24;98099.56;105645;1298;62369;-26
2022/12/24 01:59:59;;;;;;;20.90;12.90;;;;;;;4.44;83.11;98101.11;105685;1298;75912;-26
2022/12/24 02:02:26;;;;;;;21.40;11.70;;;;;;;4.28;83.48;98102.23;105674;1295;76537;-26
2022/12/24 02:04:58;;;;;;;20.60;11.50;;;;;;;4.32;84.37;98103.52;105725;1292;74640;-26
2022/12/24 02:07:24;;;;;;;22.80;12.50;;;;;;;4.91;82.91;98108.21;105658;1290;61323;-26
2022/12/24 02:09:58;;;;;;;21.50;11.90;;;;;;;5.06;81.64;98107.54;105676;1290;61484;-26
2022/12/24 02:12:26;;;;;;;22.70;12.30;;;;;;;4.92;81.48;98110.05;105729;1295;74615;-26
2022/12/24 02:14:53;;;;;;;22.10;12.30;;;;;;;4.72;81.99;98111.71;105709;1295;76373;-26
2022/12/24 02:17:41;;;;;;;21.80;12.80;;;;;;;4.47;82.57;98108.15;105691;1295;73612;-25
2022/12/24 02:20:30;;;;;;;18.00;9.50;;;;;;;4.32;83.45;98103.54;105604;1298;61809;-26
2022/12/24 02:23:16;;;;;;;21.00;10.50;;;;;;;4.79;82.75;98105.17;105845;1288;62686;-26
2022/12/24 02:26:06;;;;;;;21.60;12.10;;;;;;;4.99;81.59;98102.73;105756;1295;75761;-26
2022/12/24 02:28:55;;;;;;;21.20;12.20;;;;;;;4.83;81.64;98103.84;105571;1297;75578;-26
2022/12/24 02:31:26;;;;;;;22.50;13.50;;;;;;;4.62;82.47;98097.94;105679;1289;73693;-26
2022/12/24 02:34:05;;;;;;;19.20;11.70;;;;;;;4.35;82.92;98093.71;105436;1301;61277;-26
2022/12/24 02:36:39;;;;;;;18.10;9.30;;;;;;;4.19;83.61;98096.36;105555;1298;62240;-26
2022/12/24 02:39:11;;;;;;;24.10;11.20;;;;;;;4.67;83.16;98100.00;105568;1292;74850;-26
2022/12/24 02:44:27;;;;;;;22.60;12.40;;;;;;;4.80;81.93;98094.94;105613;1297;74404;-26
2022/12/24 02:46:55;;;;;;;22.40;12.30;;;;;;;4.53;82.54;98096.17;105565;1290;61520;-26
2022/12/24 02:49:22;;;;;;;20.80;12.00;;;;;;;4.31;83.42;98094.63;105537;1291;62284;-26
2022/12/24 02:51:49;;;;;;;18.50;9.90;;;;;;;4.09;84.26;98096.54;105747;1289;76110;-27
2022/12/24 02:54:16;;;;;;;20.80;11.20;;;;;;;4.34;84.58;98092.52;105596;1290;76266;-26
2022/12/24 02:57:07;;;;;;;20.30;9.90;;;;;;;4.84;82.92;98094.15;105645;1298;72567;-26
2022/12/24 02:59:54;;;;;;;22.00;11.10;;;;;;;4.98;81.94;98093.29;105654;1298;61459;-26
2022/12/24 03:02:43;;;;;;;20.30;11.70;;;;;;;4.79;82.02;98095.89;105639;1294;62388;-26
2022/12/24 03:05:19;;;;;;;23.90;12.30;;;;;;;4.48;82.63;98095.18;105567;1291;75946;-26
2022/12/24 03:07:58;;;;;;;22.10;12.90;;;;;;;4.27;83.32;98092.54;105635;1298;75245;-26
2022/12/24 03:10:34;;;;;;;15.40;8.70;;;;;;;4.20;83.42;98099.17;105586;1297;73795;-26
2022/12/24 03:13:07;;;;;;;17.30;9.50;;;;;;;4.75;82.88;98096.71;105516;1297;61862;-26
2022/12/24 03:15:35;;;;;;;18.00;9.80;;;;;;;5.19;81.21;98096.40;105555;1298;62691;-26
2022/12/24 03:18:01;;;;;;;19.20;11.80;;;;;;;5.19;80.51;98100.39;105524;1298;76262;-26
2022/12/24 03:20:33;;;;;;;18.50;11.00;;;;;;;4.92;80.79;98103.19;105691;1294;75988;-26
2022/12/24 03:23:00;;;;;;;23.40;11.80;;;;;;;4.66;81.79;98099.59;105545;1295;74516;-25
2022/12/24 03:25:27;;;;;;;25.50;12.60;;;;;;;4.32;82.66;98102.34;105667;1288;62494;-26
2022/12/24 03:27:55;;;;;;;20.80;10.40;;;;;;;4.09;83.76;98103.41;105562;1298;61104;-26
2022/12/24 03:30:22;;;;;;;13.60;7.90;;;;;;;3.96;84.54;98100.65;105439;1291;75663;-26
2022/12/24 03:32:49;;;;;;;21.80;11.30;;;;;;;4.44;83.91;98097.83;105494;1289;75044;-26
2022/12/24 03:35:16;;;;;;;17.70;10.50;;;;;;;5.00;82.32;98099.13;105622;1288;73587;-26
2022/12/24 03:37:44;;;;;;;17.90;10.20;;;;;;;5.09;81.18;98099.36;105552;1294;60289;-26
2022/12/24 03:40:11;;;;;;;19.90;11.40;;;;;;;4.92;81.08;98101.83;105651;1293;62201;-26
2022/12/24 03:42:38;;;;;;;21.10;12.10;;;;;;;4.63;81.61;98108.21;105656;1298;75395;-26
2022/12/24 03:45:05;;;;;;;22.90;12.90;;;;;;;4.35;82.62;98108.48;105662;1295;76152;-26
2022/12/24 03:47:32;;;;;;;21.70;12.70;;;;;;;4.12;83.86;98110.60;105554;1298;74631;-26
2022/12/24 03:49:59;;;;;;;16.40;8.30;;;;;;;4.01;84.59;98108.72;105546;1297;61170;-26
2022/12/24 03:52:26;;;;;;;16.50;9.50;;;;;;;4.55;83.91;98108.42;105636;1294;62499;-26
2022/12/24 03:54:53;;;;;;;20.40;11.10;;;;;;;5.04;82.17;98103.34;105663;1296;74758;-26
2022/12/24 03:57:19;;;;;;;20.00;11.00;;;;;;;5.03;81.24;98100.14;105544;1295;76493;-26
2022/12/24 03:59:46;;;;;;;21.00;11.80;;;;;;;4.84;81.77;98097.77;105699;1293;74663;-26
2022/12/24 04:02:13;;;;;;;18.40;9.60;;;;;;;4.65;82.21;98091.75;105749;1295;62441;-26
2022/12/24 04:04:40;;;;;;;17.50;10.90;;;;;;;4.37;83.16;98087.70;105786;1295;61233;-26
2022/12/24 04:07:07;;;;;;;19.20;9.70;;;;;;;4.28;83.68;98085.95;105773;1295;75176;-26
2022/12/24 04:09:34;;;;;;;17.40;10.90;;;;;;;4.80;82.80;98085.30;105706;1294;76618;-26
2022/12/24 04:12:01;;;;;;;22.20;11.00;;;;;;;5.07;81.34;98084.41;105685;1287;75060;-26
2022/12/24 04:14:28;;;;;;;18.00;10.50;;;;;;;4.99;81.00;98086.17;105762;1293;61400;-26
2022/12/24 04:16:55;;;;;;;22.30;12.40;;;;;;;4.76;81.50;98085.65;105757;1285;62383;-26
2022/12/24 04:19:22;;;;;;;23.40;13.20;;;;;;;4.51;82.13;98086.36;105718;1294;74470;-26
2022/12/24 04:21:49;;;;;;;18.40;9.70;;;;;;;4.29;82.77;98088.48;105717;1294;76329;-26
2022/12/24 04:24:16;;;;;;;21.60;11.90;;;;;;;4.22;83.89;98095.48;105703;1287;74742;-26
2022/12/24 04:26:43;;;;;;;20.30;10.90;;;;;;;4.65;83.04;98093.14;105756;1294;62414;-26
2022/12/24 04:29:10;;;;;;;23.90;11.70;;;;;;;4.78;81.96;98099.06;105728;1294;60130;-26
2022/12/24 04:31:37;;;;;;;20.30;12.10;;;;;;;4.68;81.81;98098.42;105732;1295;74700;-26
2022/12/24 04:34:04;;;;;;;23.70;13.10;;;;;;;4.44;82.28;98098.36;105720;1295;76285;-26
2022/12/24 04:36:30;;;;;;;22.80;13.40;;;;;;;4.18;83.30;98097.95;105678;1296;74798;-25
2022/12/24 04:38:57;;;;;;;18.90;10.50;;;;;;;4.03;83.76;98095.93;105657;1281;62298;-25
2022/12/24 04:41:24;;;;;;;25.00;12.70;;;;;;;4.40;83.50;98096.73;105690;1298;62688;-24
2022/12/24 04:43:52;;;;;;;25.10;12.90;;;;;;;4.73;82.12;98096.29;105732;1287;75896;-24
2022/12/24 04:46:20;;;;;;;25.20;14.00;;;;;;;4.67;81.43;98095.22;105639;1294;76272;-24
2022/12/24 04:48:48;;;;;;;25.50;14.40;;;;;;;4.44;81.90;98087.23;105653;1298;73802;-25
2022/12/24 04:51:16;;;;;;;23.50;14.60;;;;;;;4.21;82.46;98090.38;105660;1297;61104;-26
2022/12/24 04:53:43;;;;;;;19.30;10.70;;;;;;;3.97;83.19;98090.13;105679;1295;62137;-25
2022/12/24 04:56:15;;;;;;;21.70;11.80;;;;;;;4.21;83.46;98088.98;105764;1288;75776;-26
2022/12/24 04:58:42;;;;;;;22.00;12.30;;;;;;;4.64;81.98;98095.24;105584;1297;75182;-26
2022/12/24 05:01:22;;;;;;;27.10;14.10;;;;;;;4.63;81.27;98094.80;105710;1287;74746;-26
2022/12/24 05:03:50;;;;;;;22.70;12.90;;;;;;;4.31;81.67;98096.22;105687;1298;62206;-26
2022/12/24 05:06:22;;;;;;;26.30;15.60;;;;;;;4.09;82.51;98095.85;105733;1295;62554;-26
2022/12/24 05:08:49;;;;;;;25.10;14.80;;;;;;;3.92;83.22;98091.70;105688;1298;74901;-26
2022/12/24 05:11:16;;;;;;;18.50;10.40;;;;;;;3.80;83.22;98086.64;105686;1294;76736;-26
2022/12/24 05:13:43;;;;;;;20.40;11.50;;;;;;;4.22;83.37;98085.98;105694;1294;75006;-26
2022/12/24 05:16:14;;;;;;;19.20;12.00;;;;;;;4.71;81.63;98086.66;105710;1294;61229;-26
2022/12/24 05:18:41;;;;;;;22.60;12.40;;;;;;;4.74;80.79;98084.06;105586;1290;61700;-26
2022/12/24 05:21:18;;;;;;;22.20;12.00;;;;;;;4.55;80.84;98077.45;105742;1294;75714;-26
2022/12/24 05:26:34;;;;;;;27.60;14.20;;;;;;;4.06;82.07;98072.69;105690;1298;74612;-26
2022/12/24 05:29:02;;;;;;;17.90;10.50;;;;;;;3.89;82.52;98069.92;105690;1287;63028;-26
2022/12/24 05:31:30;;;;;;;16.90;10.00;;;;;;;4.32;82.35;98066.44;105623;1288;62251;-26
2022/12/24 05:33:57;;;;;;;24.80;12.80;;;;;;;4.69;80.89;98064.99;105545;1296;75756;-26
2022/12/24 05:36:24;;;;;;;12.60;7.10;;;;;;;4.61;80.52;98064.70;105723;1294;75273;-25
2022/12/24 05:38:51;;;;;;;24.70;12.80;;;;;;;4.34;80.86;98066.79;105689;1279;74745;-26
2022/12/24 05:41:18;;;;;;;28.10;14.20;;;;;;;4.09;81.51;98063.88;105649;1296;62644;-26
2022/12/24 05:43:45;;;;;;;26.90;14.30;;;;;;;3.83;82.25;98063.09;105708;1295;62266;-26
2022/12/24 05:46:13;;;;;;;19.80;10.50;;;;;;;3.74;82.93;98064.75;105665;1298;75000;-26
2022/12/24 05:48:40;;;;;;;23.80;13.30;;;;;;;4.26;82.48;98068.05;105642;1297;76176;-26
2022/12/24 05:51:09;;;;;;;23.80;13.70;;;;;;;4.55;81.22;98065.27;105648;1293;74863;-26
2022/12/24 05:53:36;;;;;;;23.60;15.00;;;;;;;4.47;80.87;98070.14;105596;1290;62691;-26
2022/12/24 05:56:11;;;;;;;26.40;15.10;;;;;;;4.29;81.12;98072.64;105714;1295;62383;-25
2022/12/24 05:58:38;;;;;;;30.10;15.20;;;;;;;4.02;81.54;98077.75;105644;1296;74848;-26
2022/12/24 06:01:05;;;;;;;25.70;12.70;;;;;;;3.82;82.20;98083.46;105730;1294;76315;-26
2022/12/24 06:03:33;;;;;;;21.30;13.00;;;;;;;3.86;82.95;98083.52;105698;1287;73491;-25
2022/12/24 06:06:04;;;;;;;24.20;13.90;;;;;;;4.38;82.19;98084.39;105643;1295;61196;-26
2022/12/24 06:08:31;;;;;;;22.30;12.60;;;;;;;4.58;81.38;98091.21;105680;1298;61253;-26
2022/12/24 06:10:59;;;;;;;26.10;13.70;;;;;;;4.44;81.22;98090.09;105724;1287;74664;-26
2022/12/24 06:13:26;;;;;;;18.40;11.50;;;;;;;4.21;81.80;98093.77;105612;1295;76101;-26
2022/12/24 06:15:54;;;;;;;22.20;12.00;;;;;;;3.92;82.64;98092.39;105715;1293;74899;-26
2022/12/24 06:18:21;;;;;;;21.30;11.80;;;;;;;3.78;83.43;98096.75;105600;1294;62202;-26
2022/12/24 06:20:50;;;;;;;30.20;15.90;;;;;;;4.14;83.25;98096.52;105716;1294;62129;-25
2022/12/24 06:23:17;;;;;;;27.90;15.40;;;;;;;4.54;81.74;98095.74;105673;1297;75955;-26
2022/12/24 06:25:45;;;;;;;25.20;13.90;;;;;;;4.55;81.03;98096.56;105715;1287;73868;-26
2022/12/24 06:28:12;;;;;;;24.90;13.20;;;;;;;4.37;81.08;98093.55;105656;1297;73554;-25
2022/12/24 06:30:39;;;;;;;27.20;15.00;;;;;;;4.12;81.86;98093.88;105600;1297;61554;-26
2022/12/24 06:33:06;;;;;;;29.80;14.20;;;;;;;3.94;82.53;98094.64;105719;1295;59933;-25
2022/12/24 06:35:34;;;;;;;26.10;14.10;;;;;;;4.16;82.74;98094.83;105649;1297;75642;-26
2022/12/24 06:38:02;;;;;;;21.20;11.70;;;;;;;4.49;81.61;98099.09;105577;1296;75228;-26
2022/12/24 06:40:29;;;;;;;22.90;10.60;;;;;;;4.38;81.45;98098.27;105607;1295;74868;-25
2022/12/24 06:42:56;;;;;;;32.50;16.90;;;;;;;4.23;81.62;98104.46;105618;1298;62706;-26
2022/12/24 06:45:23;;;;;;;22.70;13.20;;;;;;;4.07;81.98;98111.80;105666;1295;62460;-26
2022/12/24 06:47:50;;;;;;;20.20;12.60;;;;;;;3.87;82.71;98118.12;105614;1298;75684;-25
2022/12/24 06:50:17;;;;;;;23.80;11.90;;;;;;;4.28;82.62;98124.21;105706;1295;76172;-26
2022/12/24 06:52:45;;;;;;;17.00;8.50;;;;;;;4.74;80.68;98125.80;105640;1288;74923;-26
2022/12/24 06:55:12;;;;;;;25.70;14.90;;;;;;;4.77;79.91;98128.02;105605;1298;61134;-26
2022/12/24 06:57:39;;;;;;;26.10;15.50;;;;;;;4.60;80.11;98128.73;105609;1296;62663;-25
2022/12/24 07:00:07;;;;;;;31.20;17.50;;;;;;;4.41;80.68;98131.91;105631;1290;74087;-26
2022/12/24 07:02:34;;;;;;;24.90;14.50;;;;;;;4.18;80.95;98132.48;105519;1299;76147;-26
2022/12/24 07:05:01;;;;;;;27.20;14.30;;;;;;;4.05;81.75;98135.59;105616;1298;74083;-25
2022/12/24 07:07:28;;;;;;;28.60;14.60;;;;;;;4.53;81.40;98132.80;105602;1298;61449;-26
2022/12/24 07:09:55;;;;;;;24.20;13.00;;;;;;;4.88;80.02;98133.37;105693;1279;59967;-26
2022/12/24 07:12:22;;;;;;;28.80;15.70;;;;;;;4.85;79.51;98136.91;105627;1295;74779;-26
2022/12/24 07:14:49;;;;;;;30.40;16.10;;;;;;;4.65;79.25;98139.15;105669;1295;75564;-26
2022/12/24 07:17:17;;;;;;;29.20;15.50;;;;;;;4.43;80.03;98146.38;105647;1294;74565;-25
2022/12/24 07:19:45;;;;;;;27.50;16.50;;;;;;;4.22;80.31;98146.16;105515;1293;61431;-26
2022/12/24 07:22:12;;;;;;;28.10;14.60;;;;;;;4.07;81.07;98149.43;105644;1295;61249;-26
2022/12/24 07:25:02;;;;;;;24.80;13.40;;;;;;;4.39;81.15;98141.20;105671;1295;75887;-25
2022/12/24 07:27:30;;;;;;;27.10;15.00;;;;;;;4.75;80.02;98132.98;105295;1300;76337;-25
2022/12/24 07:29:59;;;;;;;24.90;13.50;;;;;;;4.68;79.82;98130.55;105212;1301;73790;-28
2022/12/24 07:32:29;;;;;;;24.80;14.60;;;;;;;4.48;80.02;98132.09;105131;1296;62511;-26
2022/12/24 07:34:59;;;;;;;27.00;15.20;;;;;;;4.28;80.53;98140.06;104984;1303;60600;-25
2022/12/24 07:37:27;;;;;;;24.40;13.40;;;;;;;4.04;81.11;98138.59;105108;1303;74873;-25
2022/12/24 07:39:57;;;;;;;27.40;14.00;;;;;;;4.14;81.80;98133.80;105283;1300;75363;-26
2022/12/24 07:42:27;;;;;;;27.30;15.60;;;;;;;4.82;80.75;98131.80;105270;1300;74632;-26
2022/12/24 07:44:57;;;;;;;26.50;15.00;;;;;;;5.10;79.22;98133.02;105258;1300;62475;-26
2022/12/24 07:47:26;;;;;;;26.60;13.70;;;;;;;4.97;78.46;98131.58;105254;1304;61360;-26
2022/12/24 07:49:55;;;;;;;30.30;17.60;;;;;;;4.73;78.76;98129.31;104966;1303;75958;-25
2022/12/24 07:52:24;;;;;;;34.10;17.50;;;;;;;4.49;79.37;98124.84;105196;1301;76105;-26
2022/12/24 07:54:53;;;;;;;23.80;14.20;;;;;;;4.31;80.21;98127.79;105035;1304;73396;-25
2022/12/24 07:57:22;;;;;;;28.10;14.50;;;;;;;4.20;80.86;98128.58;105136;1304;62040;-26
2022/12/24 07:59:52;;;;;;;29.90;15.30;;;;;;;4.66;80.66;98130.30;105631;1298;62374;-26
2022/12/24 08:02:22;;;;;;;26.10;15.60;;;;;;;5.11;79.48;98132.42;105609;1294;74977;-26
2022/12/24 08:04:53;;;;;;;28.70;17.00;;;;;;;5.15;78.54;98135.73;105589;1294;76351;-26
2022/12/24 08:07:22;;;;;;;32.60;17.00;;;;;;;5.02;78.19;98139.77;105562;1298;72383;-26
2022/12/24 08:09:53;;;;;;;34.70;18.80;;;;;;;4.82;78.14;98141.91;105519;1294;62458;-26
2022/12/24 08:12:42;;;;;;;32.50;19.20;;;;;;;4.61;78.67;98139.14;105236;1294;60083;-25
2022/12/24 08:15:11;;;;;;;23.60;14.40;;;;;;;4.46;79.03;98144.96;105087;1297;75936;-25
2022/12/24 08:17:40;;;;;;;27.10;15.60;;;;;;;4.89;79.22;98141.74;105042;1297;75054;-26
2022/12/24 08:20:10;;;;;;;27.60;15.70;;;;;;;5.37;77.94;98143.07;105032;1303;75031;-26
2022/12/24 08:22:39;;;;;;;31.20;17.30;;;;;;;5.29;76.51;98144.93;105155;1304;60172;-26
2022/12/24 08:25:09;;;;;;;31.80;18.90;;;;;;;5.15;76.94;98145.23;105238;1296;62663;-26
2022/12/24 08:35:51;;;;;;;28.00;15.90;;;;;;;4.51;80.24;98130.23;99277;1328;599942;-23
2022/12/24 08:38:19;;;;;;;29.50;17.30;;;;;;;5.09;78.70;98131.38;101233;1312;62857;-23
2022/12/24 08:40:51;;;;;;;32.50;16.30;;;;;;;5.31;77.73;98132.35;101279;1304;62612;-23
2022/12/24 08:43:17;;;;;;;31.00;19.20;;;;;;;5.29;77.56;98132.65;101231;1306;72887;-23
2022/12/24 08:45:45;;;;;;;27.70;15.70;;;;;;;5.10;77.87;98135.08;101141;1307;75797;-23
2022/12/24 08:48:12;;;;;;;31.60;18.40;;;;;;;4.76;78.39;98139.44;100792;1310;72956;-23
2022/12/24 08:50:40;;;;;;;29.00;18.00;;;;;;;4.61;79.07;98143.58;100363;1312;1377615;-23
2022/12/24 08:53:08;;;;;;;23.90;13.90;;;;;;;4.48;80.21;98152.04;101259;1306;62311;-23
2022/12/24 08:55:35;;;;;;;28.00;16.00;;;;;;;5.00;79.30;98153.05;101381;1302;73612;-23
2022/12/24 08:58:02;;;;;;;28.20;17.30;;;;;;;5.23;77.52;98156.36;101458;1310;76163;-23
2022/12/24 09:00:29;;;;;;;27.50;17.40;;;;;;;5.27;77.18;98149.73;101436;1309;74215;-23
2022/12/24 09:02:56;;;;;;;29.50;18.10;;;;;;;5.22;77.53;98145.76;101408;1311;61416;-23
2022/12/24 09:05:24;;;;;;;31.90;17.70;;;;;;;4.99;77.68;98142.91;101375;1301;62727;-23
2022/12/24 09:07:51;;;;;;;31.80;18.40;;;;;;;4.87;78.40;98142.61;101460;1302;74469;-23
2022/12/24 09:10:18;;;;;;;36.90;19.40;;;;;;;4.79;78.68;98148.17;101455;1311;74628;-26
2022/12/24 09:12:46;;;;;;;25.00;14.10;;;;;;;4.81;78.47;98147.50;101414;1311;74111;-26
2022/12/24 09:15:13;;;;;;;30.80;17.90;;;;;;;5.16;77.87;98144.50;101422;1308;61804;-25
2022/12/24 09:17:40;;;;;;;35.70;17.90;;;;;;;5.53;77.47;98141.05;101432;1310;61825;-25
2022/12/24 09:20:08;;;;;;;34.20;19.30;;;;;;;5.64;77.10;98140.90;101436;1308;75407;-23
2022/12/24 09:22:36;;;;;;;36.60;20.60;;;;;;;5.53;77.17;98150.16;101412;1311;76729;-24
2022/12/24 09:25:05;;;;;;;35.20;19.70;;;;;;;5.41;77.02;98150.23;101278;1310;73999;-24
2022/12/24 09:27:53;;;;;;;29.00;17.40;;;;;;;5.30;77.12;98149.64;100752;1316;61943;-26
2022/12/24 09:30:20;;;;;;;29.30;17.90;;;;;;;5.19;77.10;98151.33;100718;1314;62815;-28
2022/12/24 09:32:47;;;;;;;33.60;14.30;;;;;;;5.07;77.55;98149.59;100669;1318;74640;-26
2022/12/24 09:35:14;;;;;;;27.20;13.60;;;;;;;5.57;77.74;98145.03;100711;1321;75246;-27
2022/12/24 09:37:41;;;;;;;31.50;15.40;;;;;;;6.20;76.36;98140.52;101522;1308;75314;-27
2022/12/24 09:40:36;;;;;;;28.60;16.60;;;;;;;6.36;75.46;98134.41;101772;1305;61743;-26
2022/12/24 09:43:30;;;;;;;31.90;17.50;;;;;;;6.21;75.34;98138.67;101730;1307;62579;-26
2022/12/24 09:45:57;;;;;;;;;;;;;;;5.88;75.69;98143.61;101577;1310;74299;-24
2022/12/24 09:48:27;;;;;;;33.40;19.30;;;;;;;5.61;76.48;98143.58;101618;1308;76490;-24
2022/12/24 09:51:01;;;;;;;34.00;19.40;;;;;;;5.37;76.96;98141.52;101325;1309;73387;-24
2022/12/24 09:53:56;;;;;;;33.80;19.50;;;;;;;5.17;77.57;98143.36;101765;1302;61128;-24
2022/12/24 09:56:32;;;;;;;24.20;13.90;;;;;;;5.07;78.26;98144.40;101959;1295;62812;-24
2022/12/24 09:59:01;;;;;;;28.50;15.10;;;;;;;5.79;78.21;98142.55;101861;1303;75586;-24
2022/12/24 10:01:29;;;;;;;30.00;16.40;;;;;;;6.38;76.65;98143.45;101857;1305;76880;-24
2022/12/24 10:04:08;;;;;;;30.80;16.50;;;;;;;6.43;75.56;98140.10;101879;1304;75102;-24
2022/12/24 10:06:42;;;;;;;36.60;20.10;;;;;;;6.19;75.56;98140.19;101866;1294;62704;-24
2022/12/24 10:09:19;;;;;;;34.60;20.70;;;;;;;5.92;76.03;98136.55;101781;1302;61595;-24
2022/12/24 10:11:53;;;;;;;34.90;20.90;;;;;;;5.66;76.78;98139.38;101957;1304;74739;-25
2022/12/24 10:14:29;;;;;;;33.20;19.90;;;;;;;5.43;77.14;98138.17;101997;1299;76557;-25
2022/12/24 10:17:22;;;;;;;33.20;19.00;;;;;;;5.27;77.90;98136.31;102191;1299;74838;-25
2022/12/24 10:20:14;;;;;;;26.90;15.20;;;;;;;5.23;78.50;98138.64;102352;1295;63644;-26
2022/12/24 10:23:23;;;;;;;31.20;15.70;;;;;;;6.02;78.14;98139.79;102384;1295;62702;-25
2022/12/24 10:26:09;;;;;;;27.10;15.30;;;;;;;6.59;76.32;98140.95;101883;1302;73987;-27
2022/12/24 10:28:46;;;;;;;27.00;16.90;;;;;;;6.51;75.61;98142.04;102165;1301;75539;-26
2022/12/24 10:31:13;;;;;;;34.30;19.70;;;;;;;6.27;75.95;98141.86;102026;1302;75495;-30
2022/12/24 10:33:43;;;;;;;36.80;20.70;;;;;;;5.96;76.26;98145.07;102360;1292;63274;-27
2022/12/24 10:36:16;;;;;;;38.60;22.80;;;;;;;5.63;77.08;98148.04;102188;1297;61504;-29
2022/12/24 10:38:44;;;;;;;33.90;18.50;;;;;;;5.38;78.14;98149.42;102283;1301;75493;-25
2022/12/24 10:41:12;;;;;;;33.10;19.20;;;;;;;5.65;78.56;98152.71;102186;1302;76812;-26
2022/12/24 10:43:41;;;;;;;38.90;19.60;;;;;;;5.87;78.14;98152.66;102101;1300;75414;-29
2022/12/24 10:46:18;;;;;;;34.80;20.50;;;;;;;6.00;77.82;98155.65;102261;1294;61865;-30
2022/12/24 10:48:59;;;;;;;34.40;19.70;;;;;;;5.85;77.62;98159.15;102206;1301;62845;-29
2022/12/24 10:51:39;;;;;;;27.40;16.60;;;;;;;5.64;78.34;98154.70;102333;1301;74927;-27
2022/12/24 10:54:14;;;;;;;28.90;16.30;;;;;;;5.39;78.79;98154.16;102175;1302;76636;-27
2022/12/24 10:56:49;;;;;;;31.20;18.00;;;;;;;5.57;79.26;98156.42;102079;1300;75287;-25
2022/12/24 10:59:38;;;;;;;44.40;22.10;;;;;;;5.90;78.28;98159.11;102384;1298;62895;-25
2022/12/24 11:02:30;;;;;;;33.70;19.80;;;;;;;5.70;79.13;98157.52;102372;1299;61167;-25
2022/12/24 11:04:59;;;;;;;34.90;19.40;;;;;;;5.72;79.08;98151.35;101981;1305;74353;-24
2022/12/24 11:07:27;;;;;;;37.00;21.00;;;;;;;5.57;79.19;98151.60;102396;1299;76647;-24
2022/12/24 11:10:03;;;;;;;31.50;17.30;;;;;;;5.38;79.87;98147.64;102312;1301;75103;-24
2022/12/24 11:12:32;;;;;;;31.20;17.30;;;;;;;5.30;80.37;98148.75;102159;1301;64152;-24
2022/12/24 11:15:06;;;;;;;25.70;15.70;;;;;;;5.79;80.45;98151.83;102176;1302;61775;-25
2022/12/24 11:17:33;;;;;;;39.00;20.80;;;;;;;6.18;78.62;98152.91;102100;1294;75498;-24
2022/12/24 11:20:02;;;;;;;39.20;22.00;;;;;;;6.11;78.29;98150.52;102201;1302;75531;-24
2022/12/24 11:22:30;;;;;;;36.40;21.30;;;;;;;5.84;78.97;98157.53;102255;1302;74335;-25
2022/12/24 11:25:02;;;;;;;37.00;21.20;;;;;;;5.63;80.03;98156.52;102256;1298;61561;-26
2022/12/24 11:27:50;;;;;;;25.50;13.90;;;;;;;5.46;80.56;98159.48;102064;1303;61764;-26
2022/12/24 11:30:29;;;;;;;26.80;17.30;;;;;;;5.69;80.75;98159.66;102273;1299;75293;-29
2022/12/24 11:32:59;;;;;;;37.70;19.80;;;;;;;6.10;79.31;98158.82;102021;1304;75693;-31
2022/12/24 11:35:28;;;;;;;32.50;18.60;;;;;;;6.03;78.90;98161.44;102149;1302;74891;-30
2022/12/24 11:38:01;;;;;;;37.60;21.10;;;;;;;5.78;79.51;98156.23;101976;1301;62886;-29
2022/12/24 11:40:43;;;;;;;38.60;21.20;;;;;;;5.46;80.87;98157.05;102107;1299;61696;-29
2022/12/24 11:43:24;;;;;;;32.00;17.00;;;;;;;5.27;81.80;98156.80;101519;1313;74667;-30
2022/12/24 11:45:55;;;;;;;37.70;19.70;;;;;;;5.76;81.58;98160.64;101694;1310;75889;-31
2022/12/24 11:48:28;;;;;;;32.50;18.70;;;;;;;6.10;80.11;98168.17;101389;1311;75566;-29
2022/12/24 11:51:05;;;;;;;;;;;;;;;6.01;79.78;98168.79;101270;1304;61486;-29
2022/12/24 11:53:54;;;;;;;31.10;17.20;;;;;;;5.77;80.24;98169.74;101693;1298;62754;-33